Itacaja, Brazil
Current Conditions -  °F | °C
As of 6:00 AM on Friday 31 Oct 2014 (Local Time) from SBPJ Reporting Station
Broken Clouds Broken Clouds  
Wind Chill: 75°   Ceiling: 1700
Heat Index: 75°   Visibility: 6mi
Dew Point: 70°   Wind: 6mph
Humidity: 83%   Direction: 180°S
Pressure: 29.88"   Gusts: NA
Location:  8.39°S, 47.77°W
Report Text: SBPJ 310900Z 18005KT 9999 BKN017 FEW027TCU BKN090 24/21 Q1012
Loading
Personal Weather Stations






























Interactive Weather Map
Tropical Storm Tracking
New forecast layout! Learn more

10-Day Weather Forecast

Advertisements
Track Severe Weather on mobile